sensor_id;sensor_type;location;lat;lon;timestamp;pressure;altitude;pressure_sealevel;temperature;humidity
7058;BME280;3570;43.080;25.628;2022-12-20T00:02:38;-19370.59;;;-2.82;100.00
7058;BME280;3570;43.080;25.628;2022-12-20T00:05:22;-19360.88;;;-3.15;100.00
7058;BME280;3570;43.080;25.628;2022-12-20T00:08:07;-19357.50;;;-3.27;100.00
7058;BME280;3570;43.080;25.628;2022-12-20T00:10:51;-19352.78;;;-3.43;100.00
7058;BME280;3570;43.080;25.628;2022-12-20T00:13:36;-19346.88;;;-3.63;100.00
7058;BME280;3570;43.080;25.628;2022-12-20T00:16:23;-19349.25;;;-3.55;100.00
7058;BME280;3570;43.080;25.628;2022-12-20T00:19:09;-19344.97;;;-3.69;100.00
7058;BME280;3570;43.080;25.628;2022-12-20T00:21:53;-19347.47;;;-3.61;100.00
7058;BME280;3570;43.080;25.628;2022-12-20T00:24:37;-19355.00;;;-3.35;100.00
7058;BME280;3570;43.080;25.628;2022-12-20T00:27:21;-19350.72;;;-3.50;100.00
7058;BME280;3570;43.080;25.628;2022-12-20T00:30:05;-19347.19;;;-3.62;100.00
7058;BME280;3570;43.080;25.628;2022-12-20T00:32:50;-19341.75;;;-3.80;100.00
7058;BME280;3570;43.080;25.628;2022-12-20T00:35:34;-19342.03;;;-3.79;100.00
7058;BME280;3570;43.080;25.628;2022-12-20T00:38:18;-19343.66;;;-3.74;100.00
7058;BME280;3570;43.080;25.628;2022-12-20T00:41:10;-19340.84;;;-3.84;100.00
7058;BME280;3570;43.080;25.628;2022-12-20T00:43:56;-19346.31;;;-3.65;100.00
7058;BME280;3570;43.080;25.628;2022-12-20T00:46:40;-19337.75;;;-3.94;100.00
7058;BME280;3570;43.080;25.628;2022-12-20T00:49:24;-19342.03;;;-3.79;100.00
7058;BME280;3570;43.080;25.628;2022-12-20T00:52:08;-19341.00;;;-3.83;100.00
7058;BME280;3570;43.080;25.628;2022-12-20T00:54:52;-19340.41;;;-3.85;100.00
7058;BME280;3570;43.080;25.628;2022-12-20T00:57:36;-19331.88;;;-4.14;100.00
7058;BME280;3570;43.080;25.628;2022-12-20T01:00:20;-19342.78;;;-3.77;100.00
7058;BME280;3570;43.080;25.628;2022-12-20T01:03:05;-19345.13;;;-3.69;100.00
7058;BME280;3570;43.080;25.628;2022-12-20T01:08:35;-19348.38;;;-3.58;100.00
7058;BME280;3570;43.080;25.628;2022-12-20T01:11:22;-19342.03;;;-3.79;100.00
7058;BME280;3570;43.080;25.628;2022-12-20T01:14:12;-19346.31;;;-3.65;100.00
7058;BME280;3570;43.080;25.628;2022-12-20T01:16:56;-19343.06;;;-3.76;100.00
7058;BME280;3570;43.080;25.628;2022-12-20T01:19:40;-19341.16;;;-3.83;100.00
7058;BME280;3570;43.080;25.628;2022-12-20T01:22:24;-19336.00;;;-4.00;100.00
7058;BME280;3570;43.080;25.628;2022-12-20T01:25:08;-19341.28;;;-3.82;100.00
7058;BME280;3570;43.080;25.628;2022-12-20T01:27:52;-19342.03;;;-3.79;100.00
7058;BME280;3570;43.080;25.628;2022-12-20T01:30:39;-19338.94;;;-3.90;100.00
7058;BME280;3570;43.080;25.628;2022-12-20T01:33:24;-19332.16;;;-4.13;100.00
7058;BME280;3570;43.080;25.628;2022-12-20T01:36:17;-19327.16;;;-4.30;100.00
7058;BME280;3570;43.080;25.628;2022-12-20T01:39:08;-19339.81;;;-3.87;100.00
7058;BME280;3570;43.080;25.628;2022-12-20T01:41:53;-19340.69;;;-3.84;100.00
7058;BME280;3570;43.080;25.628;2022-12-20T01:47:31;-19344.53;;;-3.71;100.00
7058;BME280;3570;43.080;25.628;2022-12-20T01:50:16;-19335.41;;;-4.02;100.00
7058;BME280;3570;43.080;25.628;2022-12-20T01:53:01;-19336.13;;;-4.00;100.00
7058;BME280;3570;43.080;25.628;2022-12-20T01:55:47;-19334.22;;;-4.06;100.00
7058;BME280;3570;43.080;25.628;2022-12-20T01:58:33;-19331.56;;;-4.15;100.00
7058;BME280;3570;43.080;25.628;2022-12-20T02:01:20;-19322.88;;;-4.45;100.00
7058;BME280;3570;43.080;25.628;2022-12-20T02:04:05;-19325.69;;;-4.35;100.00
7058;BME280;3570;43.080;25.628;2022-12-20T02:06:49;-19316.53;;;-4.66;100.00
7058;BME280;3570;43.080;25.628;2022-12-20T02:09:34;-19314.47;;;-4.73;100.00
7058;BME280;3570;43.080;25.628;2022-12-20T02:12:23;-19313.16;;;-4.78;100.00
7058;BME280;3570;43.080;25.628;2022-12-20T02:27:10;-19318.91;;;-4.58;100.00
7058;BME280;3570;43.080;25.628;2022-12-20T02:30:20;-19316.81;;;-4.65;100.00
7058;BME280;3570;43.080;25.628;2022-12-20T02:33:07;-19318.00;;;-4.61;100.00
7058;BME280;3570;43.080;25.628;2022-12-20T02:35:54;-19314.47;;;-4.73;100.00
7058;BME280;3570;43.080;25.628;2022-12-20T02:38:38;-19313.00;;;-4.79;100.00
7058;BME280;3570;43.080;25.628;2022-12-20T02:41:29;-19320.38;;;-4.53;100.00
7058;BME280;3570;43.080;25.628;2022-12-20T02:44:17;-19321.41;;;-4.50;100.00
7058;BME280;3570;43.080;25.628;2022-12-20T02:47:28;-19320.66;;;-4.52;100.00
7058;BME280;3570;43.080;25.628;2022-12-20T02:50:17;-19317.72;;;-4.62;100.00
7058;BME280;3570;43.080;25.628;2022-12-20T02:55:49;-19304.00;;;-5.09;100.00
7058;BME280;3570;43.080;25.628;2022-12-20T02:58:40;-19276.75;;;-6.02;100.00
7058;BME280;3570;43.080;25.628;2022-12-20T03:05:35;-19286.47;;;-5.69;100.00
7058;BME280;3570;43.080;25.628;2022-12-20T03:08:21;-19298.56;;;-5.28;100.00
